Aviation Digital Data Service (ADDS)

Output produced by METARs form (1600 UTC 27 February 2017)
found at http://www.aviationweather.gov/adds/metars/
 
KPAE 271553Z 13011KT 1SM R16R/P6000FT -SN BR BKN004 OVC016 01/M01 A2973 RMK AO2 SLP071 P0000 T00061006
KPAE 271556Z 2716/2812 13008KT 5SM -RASN BR SCT004 OVC007 
     TEMPO 2716/2720 1SM -SN BR BKN004 OVC010 
     FM272000 VRB05KT 5SM -RASN BKN008 OVC015 
     FM280000 32006KT P6SM VCSH BKN030 BKN050 
     FM280200 33005KT P6SM VCSH BKN030
       
KAWO 271555Z AUTO 18004KT 9SM FEW007 OVC026 M01/M04 A2976 RMK AO1 P0001
KBFI 271553Z 13005KT 5SM BR BKN009 BKN016 OVC023 02/02 A2975 RMK AO2 RAB16E20UPB20E24SNE16 SLP074 P0001 T00170017
KBFI 271550Z 2716/2812 14004KT P6SM VCSH SCT008 OVC017 
     TEMPO 2716/2718 4SM -SHRASN BKN008 OVC017 
     FM271800 16006KT P6SM -SHRASN BKN020 BKN040 
     FM272100 18006KT P6SM VCSH BKN035 
     FM280500 15005KT P6SM BKN040
       
KRNT 271553Z 10007KT 5SM BR OVC014 02/02 A2975 RMK AO2 RAE20UPB04E06B20E27 SLP079 P0000 T00170017
KSEA 271553Z 15011KT 8SM BKN008 OVC017 02/01 A2974 RMK AO2 RAE51 SLP079 P0000 T00220011
KSEA 271549Z 2716/2818 14007KT P6SM -SHRASN SCT009 OVC020 
     TEMPO 2716/2718 4SM -SHRASN BKN009 OVC020 
     FM271800 18006KT P6SM -SHRA SCT010 BKN020 BKN045 
     FM272100 21008KT P6SM VCSH BKN030 
     FM280600 16006KT P6SM BKN035